Peru, IL

9:48 PM CDT on May 25, 2018 (GMT -0500)
Illinois Valley Regional-Duncan

Weather History for KVYS - July, 2013

Change the Weather History Date:

Saturday, July 27, 2013

  Actual Average Record
Temperature  
Mean Temperature 60 °F -  
Max Temperature 65 °F 84 °F 97 °F (1987)
Min Temperature 54 °F 63 °F 45 °F (1977)
Degree Days  
Heating Degree Days 6    
Growing Degree Days 10 (Base 50)    
Moisture  
Dew Point 51 °F    
Average Humidity 73    
Maximum Humidity 91    
Minimum Humidity 50    
Precipitation  
Precipitation 0.00 in - - ()
Sea Level Pressure  
Sea Level Pressure 29.95 in    
Wind  
Wind Speed 10 mph (WNW)    
Max Wind Speed 18 mph    
Max Gust Speed 25 mph    
Visibility 10 miles    
Events      
Averages and records for this station are not official NWS values.
T = Trace of Precipitation, MM = Missing Value Source: NWS Daily Summary

Daily Weather History Graph

Daily Weather History Graph

Search for Another Location

Airport or City:

Astronomy

Jul. 27, 2013 Rise Set
Actual Time 5:47 AM CDT 8:18 PM CDT
Civil Twilight 5:15 AM CDT 8:50 PM CDT
Nautical Twilight 4:36 AM CDT 9:29 PM CDT
Astronomical Twilight 3:51 AM CDT 10:13 PM CDT
Moon 11:00 PM CDT (7/27) 11:32 AM CDT (7/27)
Length of Visible Light 15h 34m
Length of Day
14h 31m
Waning Gibbous, 70% of the Moon is Illuminated
Jul 27
Waning Gibbous
Jul 29
Last Quarter
Aug 6
New
Aug 14
First Quarter
Aug 20
Full

Hourly Weather History & Observations

Time (CDT) Temp. Dew Point Humidity Pressure Visibility Wind Dir Wind Speed Gust Speed Precip Events Conditions
12:15 AM 57.6 °F 54.5 °F 90% 29.93 in 10.0 mi West 10.4 mph - N/A   Clear
12:35 AM 58.3 °F 55.2 °F 90% 29.93 in 10.0 mi West 8.1 mph - N/A   Clear
12:55 AM 58.5 °F 55.2 °F 89% 29.92 in 10.0 mi West 8.1 mph - N/A   Clear
1:15 AM 59.5 °F 55.9 °F 88% 29.92 in 10.0 mi West 6.9 mph - N/A   Clear
1:35 AM 59.0 °F 55.4 °F 88% 29.91 in 10.0 mi WNW 8.1 mph - N/A   Clear
1:55 AM 59.9 °F 55.9 °F 87% 29.91 in 10.0 mi WNW 8.1 mph - N/A   Clear
2:15 AM 59.0 °F 55.2 °F 87% 29.91 in 10.0 mi WNW 10.4 mph - N/A   Clear
2:35 AM 58.5 °F 54.9 °F 88% 29.91 in 10.0 mi WNW 10.4 mph - N/A   Clear
2:55 AM 58.1 °F 54.5 °F 88% 29.91 in 10.0 mi WNW 10.4 mph - N/A   Clear
3:15 AM 57.6 °F 54.5 °F 90% 29.92 in 10.0 mi WNW 8.1 mph - N/A   Clear
3:35 AM 57.4 °F 54.5 °F 90% 29.92 in 10.0 mi WNW 6.9 mph - N/A   Clear
3:55 AM 57.4 °F 54.7 °F 91% 29.92 in 10.0 mi WNW 8.1 mph - N/A   Clear
4:15 AM 57.0 °F 54.5 °F 91% 29.92 in 10.0 mi WNW 10.4 mph - N/A   Clear
4:35 AM 56.8 °F 54.1 °F 91% 29.93 in 10.0 mi NW 10.4 mph - N/A   Clear
4:55 AM 56.5 °F 53.8 °F 91% 29.93 in 10.0 mi NW 10.4 mph - N/A   Clear
5:15 AM 56.3 °F 53.6 °F 91% 29.93 in 10.0 mi NW 6.9 mph - N/A   Clear
5:35 AM 56.5 °F 53.4 °F 89% 29.93 in 10.0 mi NNW 8.1 mph - N/A   Clear
5:55 AM 56.5 °F 53.1 °F 88% 29.94 in 10.0 mi NW 8.1 mph - N/A   Clear
6:15 AM 56.3 °F 53.1 °F 89% 29.95 in 10.0 mi NW 6.9 mph - N/A   Clear
6:35 AM 56.3 °F 53.4 °F 90% 29.95 in 10.0 mi NW 8.1 mph - N/A   Scattered Clouds
6:55 AM 57.4 °F 54.0 °F 88% 29.95 in 10.0 mi NNW 10.4 mph - N/A   Overcast
7:15 AM 57.6 °F 53.6 °F 87% 29.95 in 10.0 mi NNW 10.4 mph - N/A   Overcast
7:35 AM 57.6 °F 53.2 °F 85% 29.95 in 10.0 mi NNW 9.2 mph - N/A   Overcast
7:55 AM 58.1 °F 53.4 °F 84% 29.95 in 10.0 mi NNW 9.2 mph - N/A   Overcast
8:15 AM 58.3 °F 53.2 °F 83% 29.96 in 10.0 mi NW 10.4 mph - N/A   Overcast
8:35 AM 58.6 °F 53.6 °F 83% 29.97 in 10.0 mi NW 10.4 mph - N/A   Overcast
8:55 AM 59.5 °F 53.4 °F 80% 29.97 in 10.0 mi NNW 11.5 mph - N/A   Overcast
9:15 AM 60.8 °F 53.8 °F 78% 29.96 in 10.0 mi NW 9.2 mph - N/A   Overcast
9:35 AM 60.3 °F 53.1 °F 77% 29.96 in 10.0 mi NW 10.4 mph - N/A   Overcast
9:55 AM 61.0 °F 52.2 °F 73% 29.96 in 10.0 mi NW 10.4 mph - N/A   Overcast
10:15 AM 61.5 °F 52.7 °F 73% 29.96 in 10.0 mi NNW 10.4 mph - N/A   Overcast
10:35 AM 62.6 °F 51.4 °F 67% 29.96 in 10.0 mi North 6.9 mph - N/A   Overcast
10:55 AM 62.6 °F 50.7 °F 65% 29.96 in 10.0 mi NW 6.9 mph 10.4 mph N/A   Overcast
11:15 AM 63.3 °F 51.3 °F 65% 29.95 in 10.0 mi NW 11.5 mph - N/A   Overcast
11:35 AM 63.1 °F 51.3 °F 65% 29.95 in 10.0 mi WNW 8.1 mph - N/A   Overcast
11:55 AM 63.7 °F 51.3 °F 64% 29.95 in 10.0 mi WNW 11.5 mph - N/A   Overcast
12:15 PM 64.0 °F 51.4 °F 64% 29.95 in 10.0 mi WNW 16.1 mph - N/A   Overcast
12:35 PM 64.4 °F 51.4 °F 63% 29.95 in 10.0 mi NW 9.2 mph - N/A   Overcast
12:55 PM 64.9 °F 50.9 °F 60% 29.95 in 10.0 mi WNW 12.7 mph 18.4 mph N/A   Overcast
1:15 PM 63.9 °F 51.3 °F 64% 29.95 in 10.0 mi NW 17.3 mph 25.3 mph N/A   Overcast
1:35 PM 64.6 °F 51.1 °F 62% 29.95 in 10.0 mi WNW 15.0 mph 24.2 mph N/A   Overcast
1:55 PM 64.9 °F 50.5 °F 60% 29.95 in 10.0 mi NW 17.3 mph - N/A   Overcast
2:15 PM 64.2 °F 50.5 °F 61% 29.96 in 10.0 mi NW 18.4 mph 23.0 mph N/A   Overcast
2:35 PM 63.1 °F 49.6 °F 61% 29.96 in 10.0 mi WNW 15.0 mph - N/A   Overcast
2:55 PM 63.5 °F 48.7 °F 59% 29.96 in 10.0 mi NW 17.3 mph - N/A   Overcast
3:15 PM 64.2 °F 49.8 °F 59% 29.95 in 10.0 mi NW 18.4 mph 23.0 mph N/A   Overcast
3:35 PM 63.9 °F 48.6 °F 57% 29.95 in 10.0 mi NW 17.3 mph 24.2 mph N/A   Overcast
3:55 PM 63.9 °F 48.2 °F 57% 29.95 in 10.0 mi NW 15.0 mph - N/A   Overcast
4:15 PM 63.7 °F 46.6 °F 54% 29.95 in 10.0 mi WNW 13.8 mph 19.6 mph N/A   Overcast
4:35 PM 64.4 °F 45.3 °F 50% 29.96 in 10.0 mi NW 17.3 mph 20.7 mph N/A   Overcast
4:55 PM 63.5 °F 45.5 °F 52% 29.95 in 10.0 mi NW 15.0 mph - N/A   Overcast
5:15 PM 63.1 °F 46.6 °F 55% 29.96 in 10.0 mi NW 16.1 mph - N/A   Overcast
5:35 PM 62.6 °F 47.3 °F 57% 29.95 in 10.0 mi NW 11.5 mph 18.4 mph N/A   Overcast
5:55 PM 62.8 °F 46.6 °F 55% 29.95 in 10.0 mi WNW 11.5 mph - N/A   Overcast
6:15 PM 62.6 °F 47.3 °F 57% 29.95 in 10.0 mi WNW 13.8 mph - N/A   Overcast
6:35 PM 62.8 °F 47.7 °F 58% 29.95 in 10.0 mi WNW 11.5 mph - N/A   Overcast
6:55 PM 62.6 °F 47.1 °F 57% 29.95 in 10.0 mi WNW 9.2 mph - N/A   Scattered Clouds
7:15 PM 62.1 °F 47.3 °F 58% 29.96 in 10.0 mi WNW 11.5 mph - N/A   Clear
7:35 PM 61.0 °F 47.1 °F 60% 29.95 in 10.0 mi West 8.1 mph - N/A   Clear
7:55 PM 59.0 °F 47.5 °F 66% 29.95 in 10.0 mi West 6.9 mph - N/A   Clear
8:15 PM 58.6 °F 48.0 °F 68% 29.95 in 10.0 mi West 6.9 mph - N/A   Mostly Cloudy
8:35 PM 58.6 °F 48.4 °F 69% 29.95 in 10.0 mi West 6.9 mph - N/A   Overcast
8:55 PM 58.3 °F 48.2 °F 69% 29.95 in 10.0 mi West 5.8 mph - N/A   Overcast
9:15 PM 58.6 °F 48.7 °F 70% 29.95 in 10.0 mi WSW 5.8 mph - N/A   Overcast
9:35 PM 59.4 °F 49.1 °F 69% 29.95 in 10.0 mi WSW 6.9 mph - N/A   Overcast
9:55 PM 59.5 °F 49.3 °F 69% 29.95 in 10.0 mi West 6.9 mph - N/A   Overcast
10:15 PM 57.6 °F 48.4 °F 71% 29.94 in 10.0 mi WSW 6.9 mph - N/A   Mostly Cloudy
10:35 PM 57.4 °F 48.6 °F 72% 29.95 in 10.0 mi West 10.4 mph - N/A   Mostly Cloudy
10:55 PM 57.4 °F 48.7 °F 73% 29.96 in 10.0 mi WNW 9.2 mph - N/A   Mostly Cloudy
11:15 PM 56.7 °F 48.6 °F 74% 29.96 in 10.0 mi WNW 6.9 mph - N/A   Scattered Clouds
11:35 PM 55.4 °F 47.7 °F 75% 29.96 in 10.0 mi West 8.1 mph - N/A   Clear
11:55 PM 54.7 °F 48.2 °F 79% 29.96 in 10.0 mi West 8.1 mph - N/A   Clear